sensor_id;sensor_type;location;lat;lon;timestamp;noise_LAeq;noise_LA_min;noise_LA_max;noise_LA01;noise_LA95
74496;Laerm;62979;55.720;37.606;2023-03-03T00:00:06;50.59;44.70;67.72;;
74496;Laerm;62979;55.720;37.606;2023-03-03T00:02:35;49.74;44.29;59.58;;
74496;Laerm;62979;55.720;37.606;2023-03-03T00:05:02;49.13;44.95;54.14;;
74496;Laerm;62979;55.720;37.606;2023-03-03T00:07:29;48.62;45.00;54.33;;
74496;Laerm;62979;55.720;37.606;2023-03-03T00:09:56;49.23;43.73;58.84;;
74496;Laerm;62979;55.720;37.606;2023-03-03T00:12:25;49.30;44.47;57.53;;
74496;Laerm;62979;55.720;37.606;2023-03-03T00:14:53;48.45;44.44;55.68;;
74496;Laerm;62979;55.720;37.606;2023-03-03T00:17:24;47.76;43.93;51.70;;
74496;Laerm;62979;55.720;37.606;2023-03-03T00:19:54;48.20;44.02;58.63;;
74496;Laerm;62979;55.720;37.606;2023-03-03T00:22:28;47.61;43.68;52.79;;
74496;Laerm;62979;55.720;37.606;2023-03-03T00:24:59;50.04;43.72;65.31;;
74496;Laerm;62979;55.720;37.606;2023-03-03T00:27:30;48.40;44.39;54.22;;
74496;Laerm;62979;55.720;37.606;2023-03-03T00:30:00;50.09;44.41;61.74;;
74496;Laerm;62979;55.720;37.606;2023-03-03T00:32:37;49.15;44.11;56.94;;
74496;Laerm;62979;55.720;37.606;2023-03-03T00:35:24;48.33;44.21;58.36;;
74496;Laerm;62979;55.720;37.606;2023-03-03T00:37:55;52.07;45.04;77.60;;
74496;Laerm;62979;55.720;37.606;2023-03-03T00:40:25;50.05;44.70;68.37;;
74496;Laerm;62979;55.720;37.606;2023-03-03T00:42:55;48.48;43.68;56.22;;
74496;Laerm;62979;55.720;37.606;2023-03-03T00:45:28;49.21;45.05;55.19;;
74496;Laerm;62979;55.720;37.606;2023-03-03T00:47:58;48.07;44.47;54.00;;
74496;Laerm;62979;55.720;37.606;2023-03-03T00:50:32;47.83;44.08;52.76;;
74496;Laerm;62979;55.720;37.606;2023-03-03T00:53:06;47.74;43.26;54.33;;
74496;Laerm;62979;55.720;37.606;2023-03-03T00:55:36;48.68;44.82;54.79;;
74496;Laerm;62979;55.720;37.606;2023-03-03T00:58:04;49.62;44.36;56.48;;
74496;Laerm;62979;55.720;37.606;2023-03-03T01:00:31;48.40;43.64;57.67;;
74496;Laerm;62979;55.720;37.606;2023-03-03T01:03:03;48.99;44.94;60.79;;
74496;Laerm;62979;55.720;37.606;2023-03-03T01:05:32;48.34;44.27;57.16;;
74496;Laerm;62979;55.720;37.606;2023-03-03T01:07:59;50.21;44.24;70.94;;
74496;Laerm;62979;55.720;37.606;2023-03-03T01:10:29;49.50;44.20;62.34;;
74496;Laerm;62979;55.720;37.606;2023-03-03T01:12:58;49.25;44.65;56.21;;
74496;Laerm;62979;55.720;37.606;2023-03-03T01:15:25;48.10;43.66;61.78;;
74496;Laerm;62979;55.720;37.606;2023-03-03T01:17:52;50.44;44.12;64.14;;
74496;Laerm;62979;55.720;37.606;2023-03-03T01:20:20;49.55;44.86;65.11;;
74496;Laerm;62979;55.720;37.606;2023-03-03T01:22:48;48.02;43.01;57.79;;
74496;Laerm;62979;55.720;37.606;2023-03-03T01:25:15;50.71;42.31;64.15;;
74496;Laerm;62979;55.720;37.606;2023-03-03T01:27:42;48.98;44.37;64.06;;
74496;Laerm;62979;55.720;37.606;2023-03-03T01:30:10;48.53;44.34;56.53;;
74496;Laerm;62979;55.720;37.606;2023-03-03T01:32:37;49.79;45.14;61.73;;
74496;Laerm;62979;55.720;37.606;2023-03-03T01:35:05;47.77;43.63;57.02;;
74496;Laerm;62979;55.720;37.606;2023-03-03T01:37:33;48.24;43.39;59.06;;
74496;Laerm;62979;55.720;37.606;2023-03-03T01:40:03;48.03;44.02;56.11;;
74496;Laerm;62979;55.720;37.606;2023-03-03T01:42:30;47.82;44.31;53.76;;
74496;Laerm;62979;55.720;37.606;2023-03-03T01:45:15;48.32;43.81;55.83;;
74496;Laerm;62979;55.720;37.606;2023-03-03T01:47:52;49.44;44.71;58.10;;
74496;Laerm;62979;55.720;37.606;2023-03-03T01:50:39;50.29;44.87;60.67;;
74496;Laerm;62979;55.720;37.606;2023-03-03T01:53:15;48.56;44.37;54.00;;
74496;Laerm;62979;55.720;37.606;2023-03-03T01:55:46;50.69;44.40;68.65;;
74496;Laerm;62979;55.720;37.606;2023-03-03T01:58:20;48.96;44.43;60.29;;
74496;Laerm;62979;55.720;37.606;2023-03-03T02:00:55;50.32;44.02;66.60;;
74496;Laerm;62979;55.720;37.606;2023-03-03T02:03:23;49.28;44.04;62.02;;
74496;Laerm;62979;55.720;37.606;2023-03-03T02:05:59;49.25;43.62;68.79;;
74496;Laerm;62979;55.720;37.606;2023-03-03T02:08:37;50.84;45.35;61.39;;
74496;Laerm;62979;55.720;37.606;2023-03-03T02:11:08;48.83;44.99;53.01;;
74496;Laerm;62979;55.720;37.606;2023-03-03T02:13:36;48.19;44.66;61.70;;
74496;Laerm;62979;55.720;37.606;2023-03-03T02:16:03;53.23;44.99;73.76;;
74496;Laerm;62979;55.720;37.606;2023-03-03T02:18:31;52.23;46.69;66.91;;
74496;Laerm;62979;55.720;37.606;2023-03-03T02:21:06;52.41;44.69;76.05;;
74496;Laerm;62979;55.720;37.606;2023-03-03T02:23:42;50.25;44.93;65.27;;
74496;Laerm;62979;55.720;37.606;2023-03-03T02:26:15;49.65;45.93;53.14;;
74496;Laerm;62979;55.720;37.606;2023-03-03T02:28:43;50.83;45.41;70.13;;
74496;Laerm;62979;55.720;37.606;2023-03-03T02:31:13;49.51;45.41;61.14;;
74496;Laerm;62979;55.720;37.606;2023-03-03T02:33:41;49.51;44.65;56.87;;
74496;Laerm;62979;55.720;37.606;2023-03-03T02:36:12;48.75;42.50;67.99;;
74496;Laerm;62979;55.720;37.606;2023-03-03T02:38:46;49.73;44.24;71.49;;
74496;Laerm;62979;55.720;37.606;2023-03-03T02:41:26;49.70;44.52;59.40;;
74496;Laerm;62979;55.720;37.606;2023-03-03T02:43:59;49.90;43.84;61.19;;
74496;Laerm;62979;55.720;37.606;2023-03-03T02:46:28;50.90;45.94;63.93;;
74496;Laerm;62979;55.720;37.606;2023-03-03T02:48:57;50.21;46.69;55.95;;
74496;Laerm;62979;55.720;37.606;2023-03-03T02:51:24;50.84;46.72;62.77;;
74496;Laerm;62979;55.720;37.606;2023-03-03T02:53:51;49.79;45.42;55.62;;
74496;Laerm;62979;55.720;37.606;2023-03-03T02:56:20;50.39;45.85;61.14;;
74496;Laerm;62979;55.720;37.606;2023-03-03T02:58:47;52.61;46.30;65.65;;
74496;Laerm;62979;55.720;37.606;2023-03-03T03:01:14;53.26;46.18;70.56;;
74496;Laerm;62979;55.720;37.606;2023-03-03T03:03:41;52.90;47.17;71.34;;
74496;Laerm;62979;55.720;37.606;2023-03-03T03:06:08;52.42;46.61;63.84;;
74496;Laerm;62979;55.720;37.606;2023-03-03T03:08:35;55.42;47.42;69.08;;
74496;Laerm;62979;55.720;37.606;2023-03-03T03:11:03;52.04;46.98;67.64;;
74496;Laerm;62979;55.720;37.606;2023-03-03T03:13:33;51.74;46.22;61.61;;
74496;Laerm;62979;55.720;37.606;2023-03-03T03:16:02;52.71;46.28;62.38;;
74496;Laerm;62979;55.720;37.606;2023-03-03T03:18:29;51.07;45.98;64.70;;
74496;Laerm;62979;55.720;37.606;2023-03-03T03:20:55;53.33;47.05;65.97;;
74496;Laerm;62979;55.720;37.606;2023-03-03T03:23:22;51.85;46.78;61.05;;
74496;Laerm;62979;55.720;37.606;2023-03-03T03:25:49;53.34;47.76;61.72;;
74496;Laerm;62979;55.720;37.606;2023-03-03T03:28:17;53.68;47.69;62.67;;
74496;Laerm;62979;55.720;37.606;2023-03-03T03:30:45;61.73;49.19;71.59;;
74496;Laerm;62979;55.720;37.606;2023-03-03T03:33:12;54.44;48.56;67.16;;
74496;Laerm;62979;55.720;37.606;2023-03-03T03:35:39;54.27;48.34;60.59;;
74496;Laerm;62979;55.720;37.606;2023-03-03T03:38:10;55.04;49.59;62.94;;
74496;Laerm;62979;55.720;37.606;2023-03-03T03:40:37;55.65;48.47;64.63;;
74496;Laerm;62979;55.720;37.606;2023-03-03T03:43:04;56.71;50.30;65.81;;
74496;Laerm;62979;55.720;37.606;2023-03-03T03:45:31;56.44;50.17;64.78;;
74496;Laerm;62979;55.720;37.606;2023-03-03T03:48:00;56.45;49.38;73.09;;
74496;Laerm;62979;55.720;37.606;2023-03-03T03:50:27;54.17;48.85;63.31;;
74496;Laerm;62979;55.720;37.606;2023-03-03T03:52:54;55.36;49.78;64.66;;
74496;Laerm;62979;55.720;37.606;2023-03-03T03:55:21;54.89;50.20;64.99;;
74496;Laerm;62979;55.720;37.606;2023-03-03T03:57:48;62.99;52.27;75.84;;
74496;Laerm;62979;55.720;37.606;2023-03-03T04:00:15;56.44;51.27;64.11;;
74496;Laerm;62979;55.720;37.606;2023-03-03T04:02:43;62.64;53.26;70.58;;
74496;Laerm;62979;55.720;37.606;2023-03-03T04:05:11;57.61;51.85;70.07;;
74496;Laerm;62979;55.720;37.606;2023-03-03T04:07:38;58.40;51.10;69.91;;
74496;Laerm;62979;55.720;37.606;2023-03-03T04:10:06;57.56;51.67;65.18;;
74496;Laerm;62979;55.720;37.606;2023-03-03T04:12:33;56.40;50.60;68.68;;
74496;Laerm;62979;55.720;37.606;2023-03-03T04:15:05;58.33;50.62;65.87;;
74496;Laerm;62979;55.720;37.606;2023-03-03T04:17:32;58.08;50.34;67.26;;
74496;Laerm;62979;55.720;37.606;2023-03-03T04:19:59;54.64;49.99;62.32;;
74496;Laerm;62979;55.720;37.606;2023-03-03T04:22:28;60.29;53.55;67.86;;
74496;Laerm;62979;55.720;37.606;2023-03-03T04:24:58;60.80;52.67;71.60;;
74496;Laerm;62979;55.720;37.606;2023-03-03T04:27:25;58.30;52.49;68.73;;
74496;Laerm;62979;55.720;37.606;2023-03-03T04:29:52;58.72;53.34;66.34;;
74496;Laerm;62979;55.720;37.606;2023-03-03T04:32:19;58.98;52.71;66.54;;
74496;Laerm;62979;55.720;37.606;2023-03-03T04:34:46;59.96;52.86;66.58;;
74496;Laerm;62979;55.720;37.606;2023-03-03T04:37:13;60.14;53.05;75.08;;
74496;Laerm;62979;55.720;37.606;2023-03-03T04:39:41;60.88;53.61;69.10;;
74496;Laerm;62979;55.720;37.606;2023-03-03T04:42:08;60.64;53.70;69.30;;
74496;Laerm;62979;55.720;37.606;2023-03-03T04:44:35;60.89;54.14;71.54;;
74496;Laerm;62979;55.720;37.606;2023-03-03T04:47:02;59.17;51.18;68.09;;
74496;Laerm;62979;55.720;37.606;2023-03-03T04:49:29;59.76;52.54;66.78;;
74496;Laerm;62979;55.720;37.606;2023-03-03T04:51:56;60.66;53.72;68.48;;
74496;Laerm;62979;55.720;37.606;2023-03-03T04:54:23;60.96;53.74;69.26;;
74496;Laerm;62979;55.720;37.606;2023-03-03T04:56:52;61.44;53.41;68.62;;
74496;Laerm;62979;55.720;37.606;2023-03-03T04:59:18;61.48;53.23;79.95;;
74496;Laerm;62979;55.720;37.606;2023-03-03T05:01:45;59.69;53.49;66.21;;
74496;Laerm;62979;55.720;37.606;2023-03-03T05:04:12;61.92;55.99;69.06;;
74496;Laerm;62979;55.720;37.606;2023-03-03T05:06:39;62.37;55.74;74.91;;
74496;Laerm;62979;55.720;37.606;2023-03-03T05:09:06;63.30;56.89;75.45;;
74496;Laerm;62979;55.720;37.606;2023-03-03T05:11:34;62.71;57.46;68.77;;
74496;Laerm;62979;55.720;37.606;2023-03-03T05:14:02;61.15;54.48;75.02;;
74496;Laerm;62979;55.720;37.606;2023-03-03T05:16:29;63.30;56.47;85.91;;
74496;Laerm;62979;55.720;37.606;2023-03-03T05:18:56;65.89;59.04;78.00;;
74496;Laerm;62979;55.720;37.606;2023-03-03T05:21:23;64.56;55.81;79.16;;
74496;Laerm;62979;55.720;37.606;2023-03-03T05:23:50;63.85;54.56;79.06;;
74496;Laerm;62979;55.720;37.606;2023-03-03T05:26:17;65.75;58.43;81.70;;
74496;Laerm;62979;55.720;37.606;2023-03-03T05:28:44;64.68;57.82;73.19;;
74496;Laerm;62979;55.720;37.606;2023-03-03T05:31:12;61.29;55.91;68.36;;
74496;Laerm;62979;55.720;37.606;2023-03-03T05:33:39;63.34;57.26;75.10;;
74496;Laerm;62979;55.720;37.606;2023-03-03T05:36:07;61.68;55.15;71.22;;
74496;Laerm;62979;55.720;37.606;2023-03-03T05:38:34;62.46;54.72;72.72;;
74496;Laerm;62979;55.720;37.606;2023-03-03T05:41:01;62.37;55.71;71.50;;
74496;Laerm;62979;55.720;37.606;2023-03-03T05:43:27;62.40;56.41;76.72;;
74496;Laerm;62979;55.720;37.606;2023-03-03T05:45:55;64.12;57.62;71.27;;
74496;Laerm;62979;55.720;37.606;2023-03-03T05:48:24;63.35;56.78;76.28;;
74496;Laerm;62979;55.720;37.606;2023-03-03T05:50:51;64.62;56.30;77.77;;
74496;Laerm;62979;55.720;37.606;2023-03-03T05:53:18;63.27;56.83;72.16;;
74496;Laerm;62979;55.720;37.606;2023-03-03T05:55:45;61.05;53.79;67.49;;
74496;Laerm;62979;55.720;37.606;2023-03-03T05:58:12;60.44;55.33;64.92;;
74496;Laerm;62979;55.720;37.606;2023-03-03T06:00:38;62.73;55.52;72.41;;
74496;Laerm;62979;55.720;37.606;2023-03-03T06:03:05;62.36;56.60;69.95;;
74496;Laerm;62979;55.720;37.606;2023-03-03T06:05:34;63.46;57.89;81.63;;
74496;Laerm;62979;55.720;37.606;2023-03-03T06:08:00;63.58;56.94;77.03;;
74496;Laerm;62979;55.720;37.606;2023-03-03T06:10:27;63.75;56.47;76.98;;
74496;Laerm;62979;55.720;37.606;2023-03-03T06:12:54;62.56;56.16;70.82;;
74496;Laerm;62979;55.720;37.606;2023-03-03T06:15:23;61.74;56.27;78.79;;
74496;Laerm;62979;55.720;37.606;2023-03-03T06:17:50;61.92;56.51;78.09;;
74496;Laerm;62979;55.720;37.606;2023-03-03T06:20:18;61.51;54.59;75.36;;
74496;Laerm;62979;55.720;37.606;2023-03-03T06:22:46;62.22;54.57;80.09;;
74496;Laerm;62979;55.720;37.606;2023-03-03T06:25:13;61.64;53.92;72.15;;
74496;Laerm;62979;55.720;37.606;2023-03-03T06:27:40;60.89;54.41;77.23;;
74496;Laerm;62979;55.720;37.606;2023-03-03T06:30:08;61.53;55.86;79.63;;
74496;Laerm;62979;55.720;37.606;2023-03-03T06:32:35;60.37;54.74;74.85;;
74496;Laerm;62979;55.720;37.606;2023-03-03T06:35:02;63.91;55.98;71.68;;
74496;Laerm;62979;55.720;37.606;2023-03-03T06:37:28;61.71;53.01;72.35;;
74496;Laerm;62979;55.720;37.606;2023-03-03T06:39:57;62.15;53.58;76.57;;
74496;Laerm;62979;55.720;37.606;2023-03-03T06:42:24;61.33;53.97;75.27;;
74496;Laerm;62979;55.720;37.606;2023-03-03T06:44:50;59.50;53.33;67.50;;
74496;Laerm;62979;55.720;37.606;2023-03-03T06:47:17;61.54;54.90;74.25;;
74496;Laerm;62979;55.720;37.606;2023-03-03T06:49:44;61.34;55.78;76.18;;
74496;Laerm;62979;55.720;37.606;2023-03-03T06:52:14;65.08;56.90;74.92;;
74496;Laerm;62979;55.720;37.606;2023-03-03T06:54:42;63.18;56.73;71.52;;
74496;Laerm;62979;55.720;37.606;2023-03-03T06:57:22;62.27;57.24;69.74;;
74496;Laerm;62979;55.720;37.606;2023-03-03T06:59:54;60.33;53.53;69.22;;
74496;Laerm;62979;55.720;37.606;2023-03-03T07:02:21;61.37;55.68;74.83;;
74496;Laerm;62979;55.720;37.606;2023-03-03T07:04:49;60.19;54.12;67.07;;
74496;Laerm;62979;55.720;37.606;2023-03-03T07:07:19;61.27;54.82;70.38;;
74496;Laerm;62979;55.720;37.606;2023-03-03T07:09:49;61.89;55.36;77.98;;
74496;Laerm;62979;55.720;37.606;2023-03-03T07:12:21;64.72;56.30;73.63;;
74496;Laerm;62979;55.720;37.606;2023-03-03T07:14:51;59.42;52.88;74.29;;
74496;Laerm;62979;55.720;37.606;2023-03-03T07:17:24;60.92;56.35;72.92;;
74496;Laerm;62979;55.720;37.606;2023-03-03T07:19:52;59.89;54.26;68.15;;
74496;Laerm;62979;55.720;37.606;2023-03-03T07:22:22;60.06;53.82;74.69;;
74496;Laerm;62979;55.720;37.606;2023-03-03T07:24:53;61.65;55.35;77.71;;
74496;Laerm;62979;55.720;37.606;2023-03-03T07:27:25;62.91;55.48;74.40;;
74496;Laerm;62979;55.720;37.606;2023-03-03T07:29:58;61.32;55.13;68.32;;
74496;Laerm;62979;55.720;37.606;2023-03-03T07:32:31;65.39;55.42;76.18;;
74496;Laerm;62979;55.720;37.606;2023-03-03T07:35:16;64.29;58.23;73.93;;
74496;Laerm;62979;55.720;37.606;2023-03-03T07:37:48;66.16;57.61;85.57;;
74496;Laerm;62979;55.720;37.606;2023-03-03T07:40:34;61.77;55.69;82.97;;
74496;Laerm;62979;55.720;37.606;2023-03-03T07:43:28;62.96;54.65;77.91;;
74496;Laerm;62979;55.720;37.606;2023-03-03T07:46:02;63.05;56.46;76.73;;
74496;Laerm;62979;55.720;37.606;2023-03-03T07:48:36;63.41;58.09;75.18;;
74496;Laerm;62979;55.720;37.606;2023-03-03T07:51:15;60.88;55.03;73.04;;
74496;Laerm;62979;55.720;37.606;2023-03-03T07:53:44;63.43;57.24;77.40;;
74496;Laerm;62979;55.720;37.606;2023-03-03T07:56:24;66.10;57.71;74.72;;
74496;Laerm;62979;55.720;37.606;2023-03-03T07:58:55;61.59;55.52;70.91;;
74496;Laerm;62979;55.720;37.606;2023-03-03T08:01:36;64.78;54.09;74.32;;
74496;Laerm;62979;55.720;37.606;2023-03-03T08:04:16;60.59;53.88;67.29;;
74496;Laerm;62979;55.720;37.606;2023-03-03T08:06:56;61.40;53.28;69.75;;
74496;Laerm;62979;55.720;37.606;2023-03-03T08:09:34;61.71;54.12;72.98;;
74496;Laerm;62979;55.720;37.606;2023-03-03T08:12:36;61.04;54.18;68.96;;
74496;Laerm;62979;55.720;37.606;2023-03-03T08:15:27;61.26;55.33;87.34;;
74496;Laerm;62979;55.720;37.606;2023-03-03T08:17:59;59.77;53.63;67.71;;
74496;Laerm;62979;55.720;37.606;2023-03-03T08:20:45;65.22;57.25;79.93;;
74496;Laerm;62979;55.720;37.606;2023-03-03T08:23:15;61.10;54.04;68.48;;
74496;Laerm;62979;55.720;37.606;2023-03-03T08:25:43;64.99;54.93;86.05;;
74496;Laerm;62979;55.720;37.606;2023-03-03T08:28:11;59.83;52.79;65.95;;
74496;Laerm;62979;55.720;37.606;2023-03-03T08:30:40;61.34;54.49;82.96;;
74496;Laerm;62979;55.720;37.606;2023-03-03T08:33:07;61.00;55.81;73.80;;
74496;Laerm;62979;55.720;37.606;2023-03-03T08:35:34;62.69;57.53;72.71;;
74496;Laerm;62979;55.720;37.606;2023-03-03T08:38:02;61.04;54.84;74.65;;
74496;Laerm;62979;55.720;37.606;2023-03-03T08:40:31;61.31;55.63;67.45;;
74496;Laerm;62979;55.720;37.606;2023-03-03T08:42:58;60.96;53.68;85.86;;
74496;Laerm;62979;55.720;37.606;2023-03-03T08:45:26;61.72;55.59;73.46;;
74496;Laerm;62979;55.720;37.606;2023-03-03T08:47:54;60.73;53.36;74.25;;
74496;Laerm;62979;55.720;37.606;2023-03-03T08:50:21;60.77;55.35;78.90;;
74496;Laerm;62979;55.720;37.606;2023-03-03T08:52:49;60.17;52.43;83.10;;
74496;Laerm;62979;55.720;37.606;2023-03-03T08:55:16;61.70;56.09;67.73;;
74496;Laerm;62979;55.720;37.606;2023-03-03T08:57:43;61.03;52.68;76.76;;
74496;Laerm;62979;55.720;37.606;2023-03-03T09:00:14;60.53;53.19;69.82;;
74496;Laerm;62979;55.720;37.606;2023-03-03T09:02:42;60.88;53.35;68.17;;
74496;Laerm;62979;55.720;37.606;2023-03-03T09:05:11;60.76;54.93;81.39;;
74496;Laerm;62979;55.720;37.606;2023-03-03T09:07:40;59.74;53.95;73.73;;
74496;Laerm;62979;55.720;37.606;2023-03-03T09:10:09;60.96;53.45;72.26;;
74496;Laerm;62979;55.720;37.606;2023-03-03T09:12:40;59.35;52.69;67.73;;
74496;Laerm;62979;55.720;37.606;2023-03-03T09:15:18;59.34;53.62;68.47;;
74496;Laerm;62979;55.720;37.606;2023-03-03T09:17:46;59.20;52.29;65.10;;
74496;Laerm;62979;55.720;37.606;2023-03-03T09:20:35;60.75;53.85;67.12;;
74496;Laerm;62979;55.720;37.606;2023-03-03T09:23:34;60.53;53.49;66.98;;
74496;Laerm;62979;55.720;37.606;2023-03-03T09:26:22;59.56;52.97;71.61;;
74496;Laerm;62979;55.720;37.606;2023-03-03T09:28:54;59.91;54.32;76.78;;
74496;Laerm;62979;55.720;37.606;2023-03-03T09:31:26;60.39;55.08;70.84;;
74496;Laerm;62979;55.720;37.606;2023-03-03T09:33:53;59.39;52.35;74.34;;
74496;Laerm;62979;55.720;37.606;2023-03-03T09:36:26;59.83;54.19;77.39;;
74496;Laerm;62979;55.720;37.606;2023-03-03T09:38:56;61.83;55.24;73.38;;
74496;Laerm;62979;55.720;37.606;2023-03-03T09:42:04;60.37;53.82;77.56;;
74496;Laerm;62979;55.720;37.606;2023-03-03T09:48:22;64.04;53.54;86.53;;
74496;Laerm;62979;55.720;37.606;2023-03-03T09:51:11;63.59;54.28;89.31;;
74496;Laerm;62979;55.720;37.606;2023-03-03T09:53:58;62.02;54.19;85.00;;
74496;Laerm;62979;55.720;37.606;2023-03-03T09:56:36;60.20;53.71;86.72;;
74496;Laerm;62979;55.720;37.606;2023-03-03T09:59:28;61.28;55.13;86.60;;
74496;Laerm;62979;55.720;37.606;2023-03-03T10:02:31;62.99;54.86;87.32;;
74496;Laerm;62979;55.720;37.606;2023-03-03T10:05:23;62.39;53.94;83.02;;
74496;Laerm;62979;55.720;37.606;2023-03-03T10:08:29;62.28;54.57;85.33;;
74496;Laerm;62979;55.720;37.606;2023-03-03T10:11:12;60.66;53.88;87.28;;
74496;Laerm;62979;55.720;37.606;2023-03-03T10:14:08;60.71;53.95;68.18;;
74496;Laerm;62979;55.720;37.606;2023-03-03T10:17:16;61.16;53.90;83.41;;
74496;Laerm;62979;55.720;37.606;2023-03-03T10:20:01;60.43;54.12;69.68;;
74496;Laerm;62979;55.720;37.606;2023-03-03T10:22:43;60.66;54.13;71.02;;
74496;Laerm;62979;55.720;37.606;2023-03-03T10:25:29;60.83;55.01;71.38;;
74496;Laerm;62979;55.720;37.606;2023-03-03T10:28:24;61.88;54.99;72.64;;
74496;Laerm;62979;55.720;37.606;2023-03-03T10:31:06;62.31;56.13;78.02;;
74496;Laerm;62979;55.720;37.606;2023-03-03T10:33:50;62.47;54.33;86.79;;
74496;Laerm;62979;55.720;37.606;2023-03-03T10:36:48;62.20;53.10;74.38;;
74496;Laerm;62979;55.720;37.606;2023-03-03T10:39:48;61.46;55.05;70.32;;
74496;Laerm;62979;55.720;37.606;2023-03-03T10:42:51;61.06;56.18;69.24;;
74496;Laerm;62979;55.720;37.606;2023-03-03T10:45:56;62.10;53.61;79.52;;
74496;Laerm;62979;55.720;37.606;2023-03-03T10:48:55;59.98;52.40;72.33;;
74496;Laerm;62979;55.720;37.606;2023-03-03T10:51:41;60.11;53.88;73.14;;
74496;Laerm;62979;55.720;37.606;2023-03-03T10:54:27;59.61;53.48;75.30;;
74496;Laerm;62979;55.720;37.606;2023-03-03T10:57:06;61.41;52.47;82.11;;
74496;Laerm;62979;55.720;37.606;2023-03-03T11:00:00;59.76;53.09;78.04;;
74496;Laerm;62979;55.720;37.606;2023-03-03T11:02:43;60.05;53.52;74.99;;
74496;Laerm;62979;55.720;37.606;2023-03-03T11:05:25;59.64;52.52;75.70;;
74496;Laerm;62979;55.720;37.606;2023-03-03T11:08:00;60.27;53.12;73.38;;
74496;Laerm;62979;55.720;37.606;2023-03-03T11:10:54;59.44;53.12;69.72;;
74496;Laerm;62979;55.720;37.606;2023-03-03T11:13:39;60.25;54.13;72.86;;
74496;Laerm;62979;55.720;37.606;2023-03-03T11:16:30;62.25;55.12;80.23;;
74496;Laerm;62979;55.720;37.606;2023-03-03T11:19:17;62.56;54.68;79.23;;
74496;Laerm;62979;55.720;37.606;2023-03-03T11:21:55;61.73;53.19;72.83;;
74496;Laerm;62979;55.720;37.606;2023-03-03T11:24:40;61.35;54.77;68.43;;
74496;Laerm;62979;55.720;37.606;2023-03-03T11:30:32;61.15;53.66;75.68;;
74496;Laerm;62979;55.720;37.606;2023-03-03T11:33:05;61.12;54.41;76.03;;
74496;Laerm;62979;55.720;37.606;2023-03-03T11:35:43;62.45;54.62;78.43;;
74496;Laerm;62979;55.720;37.606;2023-03-03T11:38:44;59.50;50.65;74.99;;
74496;Laerm;62979;55.720;37.606;2023-03-03T11:41:25;59.72;52.06;66.89;;
74496;Laerm;62979;55.720;37.606;2023-03-03T11:44:04;61.19;55.42;76.56;;
74496;Laerm;62979;55.720;37.606;2023-03-03T11:46:43;60.35;53.18;69.71;;
74496;Laerm;62979;55.720;37.606;2023-03-03T11:49:19;60.86;52.40;75.11;;
74496;Laerm;62979;55.720;37.606;2023-03-03T11:52:02;59.26;53.33;68.51;;
74496;Laerm;62979;55.720;37.606;2023-03-03T11:54:45;59.44;52.45;65.60;;
74496;Laerm;62979;55.720;37.606;2023-03-03T11:57:21;57.49;51.51;68.31;;
74496;Laerm;62979;55.720;37.606;2023-03-03T12:00:14;59.11;52.42;69.45;;
74496;Laerm;62979;55.720;37.606;2023-03-03T12:03:12;58.64;50.35;72.09;;
74496;Laerm;62979;55.720;37.606;2023-03-03T12:05:55;57.63;49.72;72.25;;
74496;Laerm;62979;55.720;37.606;2023-03-03T12:08:56;61.90;53.52;79.25;;
74496;Laerm;62979;55.720;37.606;2023-03-03T12:11:32;59.64;53.49;74.10;;
74496;Laerm;62979;55.720;37.606;2023-03-03T12:14:18;59.07;51.33;70.24;;
74496;Laerm;62979;55.720;37.606;2023-03-03T12:16:55;62.12;53.14;80.49;;
74496;Laerm;62979;55.720;37.606;2023-03-03T12:19:42;59.41;53.01;74.40;;
74496;Laerm;62979;55.720;37.606;2023-03-03T12:22:28;61.35;54.01;80.37;;
74496;Laerm;62979;55.720;37.606;2023-03-03T12:25:27;59.37;50.77;72.41;;
74496;Laerm;62979;55.720;37.606;2023-03-03T12:28:04;59.07;52.40;71.19;;
74496;Laerm;62979;55.720;37.606;2023-03-03T12:33:56;61.20;53.57;80.84;;
74496;Laerm;62979;55.720;37.606;2023-03-03T12:36:53;58.66;52.30;67.99;;
74496;Laerm;62979;55.720;37.606;2023-03-03T12:39:42;60.45;54.01;68.10;;
74496;Laerm;62979;55.720;37.606;2023-03-03T12:42:22;59.92;53.69;67.13;;
74496;Laerm;62979;55.720;37.606;2023-03-03T12:45:06;60.09;52.63;76.23;;
74496;Laerm;62979;55.720;37.606;2023-03-03T12:47:41;59.41;52.99;68.45;;
74496;Laerm;62979;55.720;37.606;2023-03-03T12:50:29;59.79;54.05;75.92;;
74496;Laerm;62979;55.720;37.606;2023-03-03T12:53:16;60.35;54.66;67.66;;
74496;Laerm;62979;55.720;37.606;2023-03-03T12:55:52;61.05;54.42;76.76;;
74496;Laerm;62979;55.720;37.606;2023-03-03T12:58:44;60.99;53.57;74.35;;
74496;Laerm;62979;55.720;37.606;2023-03-03T13:01:36;59.95;52.85;74.83;;
74496;Laerm;62979;55.720;37.606;2023-03-03T13:04:25;59.54;53.88;71.91;;
74496;Laerm;62979;55.720;37.606;2023-03-03T13:07:04;58.73;50.74;70.89;;
74496;Laerm;62979;55.720;37.606;2023-03-03T13:09:50;67.67;52.86;88.85;;
74496;Laerm;62979;55.720;37.606;2023-03-03T13:12:35;64.08;54.49;78.40;;
74496;Laerm;62979;55.720;37.606;2023-03-03T13:15:19;70.73;53.28;89.06;;
74496;Laerm;62979;55.720;37.606;2023-03-03T13:18:17;60.55;52.60;75.23;;
74496;Laerm;62979;55.720;37.606;2023-03-03T13:20:52;65.04;53.85;79.40;;
74496;Laerm;62979;55.720;37.606;2023-03-03T13:23:38;58.93;52.21;79.63;;
74496;Laerm;62979;55.720;37.606;2023-03-03T13:26:18;58.31;51.01;64.23;;
74496;Laerm;62979;55.720;37.606;2023-03-03T13:29:02;57.84;50.28;72.81;;
74496;Laerm;62979;55.720;37.606;2023-03-03T13:31:38;58.93;51.84;64.90;;
74496;Laerm;62979;55.720;37.606;2023-03-03T13:34:22;58.01;52.17;67.37;;
74496;Laerm;62979;55.720;37.606;2023-03-03T13:37:03;57.54;51.76;68.53;;
74496;Laerm;62979;55.720;37.606;2023-03-03T13:39:37;59.14;50.66;66.26;;
74496;Laerm;62979;55.720;37.606;2023-03-03T13:42:18;58.89;52.83;65.54;;
74496;Laerm;62979;55.720;37.606;2023-03-03T13:44:49;58.53;52.24;72.77;;
74496;Laerm;62979;55.720;37.606;2023-03-03T13:47:29;61.36;51.24;68.79;;
74496;Laerm;62979;55.720;37.606;2023-03-03T13:50:20;59.18;49.23;71.62;;
74496;Laerm;62979;55.720;37.606;2023-03-03T13:53:10;59.96;52.89;80.11;;
74496;Laerm;62979;55.720;37.606;2023-03-03T13:55:49;59.24;51.30;76.11;;
74496;Laerm;62979;55.720;37.606;2023-03-03T13:58:30;60.07;53.58;67.09;;
74496;Laerm;62979;55.720;37.606;2023-03-03T14:01:11;59.84;52.54;69.10;;
74496;Laerm;62979;55.720;37.606;2023-03-03T14:04:01;58.21;53.43;67.20;;
74496;Laerm;62979;55.720;37.606;2023-03-03T14:06:32;59.69;53.16;67.23;;
74496;Laerm;62979;55.720;37.606;2023-03-03T14:09:45;60.13;53.73;70.78;;
74496;Laerm;62979;55.720;37.606;2023-03-03T14:12:26;59.91;53.78;68.75;;
74496;Laerm;62979;55.720;37.606;2023-03-03T14:15:02;59.37;52.40;67.03;;
74496;Laerm;62979;55.720;37.606;2023-03-03T14:17:39;60.06;54.78;70.63;;
74496;Laerm;62979;55.720;37.606;2023-03-03T14:20:20;59.63;52.67;69.13;;
74496;Laerm;62979;55.720;37.606;2023-03-03T14:22:53;59.55;52.40;70.03;;